This is the latest recevied weather packets stored in our database for station/object XE3JAR. If no packets are shown the sender has not sent any weather packets the latest 10 day(s).
| Time | Temp. | Humidity | Pressure | Rain* | Wind** | Luminosity | Snow |
|---|---|---|---|---|---|---|---|
| 1777932545 | 33.89° C | 74% | 1015.2 hPa | - | - | - | - |
| 1777927347 | 37.78° C | 63% | 1015.6 hPa | - | - | - | - |
| 1777927022 | 37.78° C | 64% | 1015.6 hPa | - | - | - | - |
| 1777926414 | 36.11° C | 68% | 1015.9 hPa | - | - | - | - |
| 1777926109 | 37.22° C | 67% | 1015.9 hPa | - | - | - | - |
| 1777923977 | 36.11° C | 69% | 1016.3 hPa | - | - | - | - |
| 1777921846 | 35° C | 70% | 1017.3 hPa | - | - | - | - |
| 1777921536 | 33.89° C | 73% | 1017.3 hPa | - | - | - | - |
| 1777920931 | 36.11° C | 69% | 1017.6 hPa | - | - | - | - |
| 1777920624 | 36.11° C | 69% | 1017.6 hPa | - | - | - | - |
| 1777917891 | 33.89° C | 73% | 1018 hPa | - | - | - | - |
| 1777915234 | 33.89° C | 77% | 1018.6 hPa | - | - | - | - |
| 1777914928 | 32.22° C | 81% | 1018.6 hPa | - | - | - | - |
| 1777913715 | 32.22° C | 79% | 1019 hPa | - | - | - | - |
| 1777913409 | 32.22° C | 80% | 1019 hPa | - | - | - | - |
| 1777908176 | 30° C | 86% | 1019.6 hPa | - | - | - | - |
| 1777907592 | 31.11° C | 85% | 1019.6 hPa | - | - | - | - |
| 1777905961 | 28.89° C | 91% | 1019.3 hPa | - | - | - | - |
| 1777904163 | 26.11° C | 99% | 1019.3 hPa | - | - | - | - |
| 1777903543 | 26.11° C | 99% | 1019.3 hPa | - | - | - | - |
| 1777902359 | 26.11° C | 99% | 1019.6 hPa | - | - | - | - |
| 1777902016 | 26.11° C | 99% | 1019.6 hPa | - | - | - | - |
| 1777901412 | 26.11° C | 99% | 1019.3 hPa | - | - | - | - |
| 1777900497 | 26.11° C | 99% | 1019 hPa | - | - | - | - |
| 1777899889 | 26.11° C | 99% | 1019 hPa | - | - | - | - |
* Rain since midnight (hover to see other rain measurements)
** Current wind speed in m/s (hover to see current wind gust speed)